Portada
METAR-TAF:

METAR-TAF

Aeroports :

Illes Cocos, Austràlia

latitud: 12-11S, longitud: 096-49E, altitud: 3 m

Observació

L'informe es va fer fa 25 minuts, a les 09:30 UTC
Vent 15 kt del Est
Temperatura 29°C
Humitat 74%
Pressió 1012 hPa
Visibilitat 10 km o més
Núvols disperses a una alçada de 2400 ft

METAR: YPCC 230930Z AUTO 09015KT 9999 // SCT024 29/24 Q1012 RF00.0/000.0

Hora: 16:25 (09:55 UTC)

Pronòstic

L'informe es va fer fa 4 hores i 50 minuts, a les 05:05 UTC
Pronòstic vàlid del 23 a les 06 UTC al 24 a les 06 UTC
Vent 16 kt del Est
Visibilitat 10 km o més
Núvols disperses a una alçada de 2500 ft

TAF: YPCC 230505Z 2306/2406 10016KT 9999 SCT025

Observacions i pronòstics meteorològics de més de 4000 aeroports (METAR i TAF).

Les estacions disponibles són els punts grocs i vermells al mapa.

Posi el ratolí al punt desitjat per veure el nom de l'estació.

Feu clic per veure les observacions i els pronòstics meteorològics.

Per canviar el mapa: feu clic els botons verds amb una creu de color negre per apropar; al botó verd amb un guió per allunyar la imatge; o en les fletxes verdes per a mapes adjacents.


METAR-TAF: